createdAt,value
2024-05-09T00:01:36.538Z,102407.28
2024-05-09T00:04:11.614Z,102416.44
2024-05-09T00:06:42.260Z,102412.38
2024-05-09T00:09:15.963Z,102409.13
2024-05-09T00:11:54.350Z,102412.31
2024-05-09T00:14:27.738Z,102413.88
2024-05-09T00:16:59.973Z,102410.22
2024-05-09T00:19:34.266Z,102397.59
2024-05-09T00:22:10.929Z,102401.19
2024-05-09T00:24:44.327Z,102398.84
2024-05-09T00:27:23.154Z,102399.19
2024-05-09T00:29:53.681Z,102396.97
2024-05-09T00:32:26.347Z,102396.06
2024-05-09T00:34:57.126Z,102394.22
2024-05-09T00:37:28.135Z,102403.59
2024-05-09T00:40:18.720Z,102405.75
2024-05-09T00:43:05.037Z,102391.88
2024-05-09T00:45:39.203Z,102388.75
2024-05-09T00:48:13.404Z,102395.72
2024-05-09T00:50:50.750Z,102391.31
2024-05-09T00:53:25.209Z,102377.41
2024-05-09T00:56:01.601Z,102372.84
2024-05-09T00:58:43.952Z,102374.53
2024-05-09T01:01:14.744Z,102374.31
2024-05-09T01:03:51.957Z,102365.72
2024-05-09T01:06:24.190Z,102373.28
2024-05-09T01:09:04.696Z,102369.59
2024-05-09T01:11:45.627Z,102363.19
2024-05-09T01:14:19.344Z,102367.72
2024-05-09T01:16:50.431Z,102372.53
2024-05-09T01:19:29.724Z,102367.31
2024-05-09T01:22:10.630Z,102362.28
2024-05-09T01:24:53.241Z,102364.16
2024-05-09T01:27:26.780Z,102367.59
2024-05-09T01:29:57.586Z,102352.84
2024-05-09T01:32:30.201Z,102359.41
2024-05-09T01:35:01.138Z,102346.00
2024-05-09T01:37:34.698Z,102339.66
2024-05-09T01:40:14.797Z,102343.53
2024-05-09T01:42:54.387Z,102344.03
2024-05-09T01:45:48.069Z,102352.31
2024-05-09T01:48:21.884Z,102340.41
2024-05-09T01:50:56.540Z,102333.50
2024-05-09T01:53:27.281Z,102328.72
2024-05-09T01:56:03.629Z,102335.44
2024-05-09T01:58:35.973Z,102329.88
2024-05-09T02:01:06.634Z,102329.44
2024-05-09T02:03:37.479Z,102325.56
2024-05-09T02:06:13.244Z,102324.75
2024-05-09T02:08:47.356Z,102320.34
2024-05-09T02:11:29.148Z,102320.13
2024-05-09T02:13:59.898Z,102320.22
2024-05-09T02:16:30.662Z,102310.66
2024-05-09T02:19:05.261Z,102308.66
2024-05-09T02:21:39.199Z,102301.75
2024-05-09T02:24:10.172Z,102296.78
2024-05-09T02:26:46.510Z,102298.09
2024-05-09T02:29:17.272Z,102299.44
2024-05-09T02:31:52.573Z,102289.56
2024-05-09T02:34:26.548Z,102281.97
2024-05-09T02:37:03.062Z,102285.63
2024-05-09T02:39:31.027Z,102284.13
2024-05-09T02:42:09.749Z,102286.69
2024-05-09T02:44:39.970Z,102281.28
2024-05-09T02:47:12.432Z,102277.97
2024-05-09T02:49:43.646Z,102281.75
2024-05-09T02:52:20.475Z,102284.13
2024-05-09T02:54:54.674Z,102297.78
2024-05-09T02:57:37.197Z,102294.97
2024-05-09T03:00:07.692Z,102295.09
2024-05-09T03:02:45.792Z,102287.75
2024-05-09T03:05:13.961Z,102284.06
2024-05-09T03:07:47.907Z,102276.97
2024-05-09T03:10:22.252Z,102275.66
2024-05-09T03:13:07.546Z,102271.31
2024-05-09T03:15:39.575Z,102263.59
2024-05-09T03:18:28.451Z,102261.94
2024-05-09T03:20:56.810Z,102260.63
2024-05-09T03:23:29.871Z,102254.03
2024-05-09T03:25:58.264Z,102255.91
2024-05-09T03:28:34.029Z,102242.06
2024-05-09T03:31:03.035Z,102238.09
2024-05-09T03:33:34.110Z,102243.25
2024-05-09T03:36:12.482Z,102228.47
2024-05-09T03:38:43.254Z,102234.72
2024-05-09T03:41:14.078Z,102231.41
2024-05-09T03:43:47.767Z,102230.28
2024-05-09T03:46:24.041Z,102233.16
2024-05-09T03:48:57.356Z,102237.19
2024-05-09T03:51:28.454Z,102229.28
2024-05-09T03:53:56.431Z,102230.72
2024-05-09T03:56:27.113Z,102219.53
2024-05-09T03:59:01.080Z,102222.31
2024-05-09T04:01:32.349Z,102223.56
2024-05-09T04:04:03.625Z,102220.56
2024-05-09T04:06:38.902Z,102208.72
2024-05-09T04:09:15.181Z,102199.47
2024-05-09T04:11:50.415Z,102196.25
2024-05-09T04:14:26.684Z,102190.22
2024-05-09T04:16:57.627Z,102192.72
2024-05-09T04:19:28.519Z,102190.16
2024-05-09T04:22:00.468Z,102194.78
2024-05-09T04:24:32.557Z,102197.97
2024-05-09T04:27:10.378Z,102182.88
2024-05-09T04:29:43.464Z,102192.16
2024-05-09T04:32:17.415Z,102197.28
2024-05-09T04:34:48.250Z,102186.25
2024-05-09T04:37:19.046Z,102185.75
2024-05-09T04:39:53.014Z,102180.44
2024-05-09T04:42:26.759Z,102171.38
2024-05-09T04:45:03.689Z,102181.63
2024-05-09T04:47:37.975Z,102185.22
2024-05-09T04:50:14.507Z,102190.50
2024-05-09T04:52:48.180Z,102185.91
2024-05-09T04:55:18.253Z,102190.56
2024-05-09T04:57:54.624Z,102191.47
2024-05-09T05:00:35.894Z,102203.41
2024-05-09T05:03:14.550Z,102179.31
2024-05-09T05:05:45.666Z,102162.03
2024-05-09T05:08:19.848Z,102162.66
2024-05-09T05:10:49.308Z,102163.25
2024-05-09T05:13:21.816Z,102155.44
2024-05-09T05:16:03.138Z,102154.72
2024-05-09T05:18:35.237Z,102149.38
2024-05-09T05:21:08.517Z,102154.03
2024-05-09T05:23:44.028Z,102153.59
2024-05-09T05:26:21.145Z,102158.31
2024-05-09T05:28:56.706Z,102152.72
2024-05-09T05:31:30.300Z,102164.97
2024-05-09T05:34:02.371Z,102163.47
2024-05-09T05:36:33.382Z,102154.53
2024-05-09T05:39:08.721Z,102164.09
2024-05-09T05:41:40.836Z,102165.25
2024-05-09T05:44:14.509Z,102171.06
2024-05-09T05:46:48.249Z,102169.72
2024-05-09T05:49:20.164Z,102176.16
2024-05-09T05:51:52.135Z,102175.72
2024-05-09T05:54:22.655Z,102167.00
2024-05-09T05:56:57.995Z,102159.53
2024-05-09T05:59:33.200Z,102146.75
2024-05-09T06:02:05.242Z,102147.59
2024-05-09T06:04:41.971Z,102145.53
2024-05-09T06:07:11.694Z,102138.47
2024-05-09T06:09:42.312Z,102127.97
2024-05-09T06:12:13.296Z,102120.47
2024-05-09T06:14:46.549Z,102126.03
2024-05-09T06:17:21.628Z,102115.66
2024-05-09T06:19:52.750Z,102116.13
2024-05-09T06:22:24.276Z,102114.75
2024-05-09T06:24:55.117Z,102109.81
2024-05-09T06:27:26.789Z,102106.97
2024-05-09T06:30:03.028Z,102098.19
2024-05-09T06:32:34.789Z,102087.31
2024-05-09T06:35:11.198Z,102086.84
2024-05-09T06:37:56.515Z,102077.63
2024-05-09T06:40:36.147Z,102074.28
2024-05-09T06:43:12.574Z,102080.38
2024-05-09T06:45:43.190Z,102076.09
2024-05-09T06:48:15.763Z,102075.00
2024-05-09T06:50:51.090Z,102069.44
2024-05-09T06:53:22.135Z,102068.72
2024-05-09T06:55:57.061Z,102062.81
2024-05-09T06:58:25.140Z,102062.53
2024-05-09T07:00:57.869Z,102067.97
2024-05-09T07:03:29.050Z,102060.41
2024-05-09T07:05:59.730Z,102059.22
2024-05-09T07:08:28.131Z,102053.63
2024-05-09T07:11:01.176Z,102045.44
2024-05-09T07:13:31.905Z,102035.44
2024-05-09T07:16:08.271Z,102029.97
2024-05-09T07:18:39.428Z,102033.94
2024-05-09T07:21:13.511Z,102041.84
2024-05-09T07:23:43.604Z,102046.50
2024-05-09T07:26:15.432Z,102031.81
2024-05-09T07:28:46.364Z,102029.56
2024-05-09T07:31:17.491Z,102024.31
2024-05-09T07:33:49.157Z,102026.91
2024-05-09T07:36:22.553Z,102037.81
2024-05-09T07:38:50.583Z,102037.94
2024-05-09T07:41:31.862Z,102022.66
2024-05-09T07:43:59.886Z,102034.81
2024-05-09T07:47:36.994Z,102027.00
2024-05-09T07:53:26.905Z,102020.09
2024-05-09T07:54:50.968Z,102016.81
2024-05-09T07:57:28.140Z,102019.81
2024-05-09T08:00:01.437Z,102014.38
2024-05-09T08:02:35.506Z,102016.16
2024-05-09T08:05:09.384Z,102010.19
2024-05-09T08:07:45.487Z,102003.66
2024-05-09T08:10:27.422Z,102002.88
2024-05-09T08:13:04.503Z,101998.84
2024-05-09T08:15:35.449Z,101994.56
2024-05-09T08:18:08.005Z,101987.34
2024-05-09T08:20:40.496Z,101983.84
2024-05-09T08:23:19.787Z,101980.94
2024-05-09T08:25:49.323Z,101962.16
2024-05-09T08:28:21.597Z,101961.72
2024-05-09T08:30:55.475Z,101951.50
2024-05-09T08:33:26.532Z,101962.44
2024-05-09T08:35:57.878Z,101953.44
2024-05-09T08:38:30.641Z,101955.97
2024-05-09T08:41:04.756Z,101959.63
2024-05-09T08:43:36.745Z,101950.13
2024-05-09T08:46:07.852Z,101946.63
2024-05-09T08:48:43.778Z,101943.41
2024-05-09T08:51:19.374Z,101943.13
2024-05-09T08:53:53.077Z,101939.28
2024-05-09T08:56:22.272Z,101936.06
2024-05-09T08:58:57.819Z,101928.41
2024-05-09T09:01:34.412Z,101926.72
2024-05-09T09:04:11.836Z,101923.50
2024-05-09T09:06:45.109Z,101928.97
2024-05-09T09:09:18.675Z,101925.41
2024-05-09T09:11:49.741Z,101921.88
2024-05-09T09:14:20.446Z,101917.28
2024-05-09T09:16:50.363Z,101914.53
2024-05-09T09:19:21.623Z,101914.72
2024-05-09T09:21:55.174Z,101910.81
2024-05-09T09:27:22.927Z,101909.16
2024-05-09T09:29:53.527Z,101912.16
2024-05-09T09:32:28.024Z,101908.88
2024-05-09T09:34:58.668Z,101904.06
2024-05-09T09:37:35.875Z,101900.22
2024-05-09T09:40:07.456Z,101901.25
2024-05-09T09:42:39.013Z,101894.47
2024-05-09T09:45:13.700Z,101887.56
2024-05-09T09:47:45.423Z,101880.50
2024-05-09T09:50:27.653Z,101874.75
2024-05-09T09:53:08.734Z,101870.66
2024-05-09T09:55:40.709Z,101863.09
2024-05-09T09:58:14.401Z,101868.25
2024-05-09T10:00:48.750Z,101865.06
2024-05-09T10:03:28.267Z,101850.22
2024-05-09T10:06:04.424Z,101854.22
2024-05-09T10:08:44.484Z,101850.34
2024-05-09T10:11:23.555Z,101851.25
2024-05-09T10:13:54.163Z,101876.47
2024-05-09T10:16:25.370Z,101855.75
2024-05-09T10:19:02.119Z,101851.59
2024-05-09T10:21:49.338Z,101846.06
2024-05-09T10:24:20.013Z,101843.09
2024-05-09T10:26:58.019Z,101849.94
2024-05-09T10:29:26.701Z,101842.16
2024-05-09T10:32:03.705Z,101830.97
2024-05-09T10:34:35.309Z,101836.38
2024-05-09T10:37:06.704Z,101830.59
2024-05-09T10:39:43.335Z,101821.44
2024-05-09T10:42:17.091Z,101831.28
2024-05-09T10:44:45.031Z,101810.81
2024-05-09T10:47:18.950Z,101810.72
2024-05-09T10:49:47.607Z,101806.28
2024-05-09T10:52:25.659Z,101806.22
2024-05-09T10:54:56.471Z,101801.66
2024-05-09T10:57:28.101Z,101795.63
2024-05-09T11:00:00.462Z,101790.81
2024-05-09T11:02:36.404Z,101784.84
2024-05-09T11:05:08.683Z,101777.97
2024-05-09T11:07:41.822Z,101778.78
2024-05-09T11:10:20.993Z,101776.50
2024-05-09T11:13:00.566Z,101784.00
2024-05-09T11:15:38.986Z,101772.34
2024-05-09T11:18:11.479Z,101766.25
2024-05-09T11:20:39.969Z,101759.81
2024-05-09T11:23:24.834Z,101753.56
2024-05-09T11:25:56.480Z,101754.28
2024-05-09T11:28:28.970Z,101752.28
2024-05-09T11:31:07.320Z,101753.78
2024-05-09T11:33:40.628Z,101750.84
2024-05-09T11:36:11.922Z,101739.38
2024-05-09T11:38:44.805Z,101732.78
2024-05-09T11:41:20.442Z,101727.03
2024-05-09T11:43:58.350Z,101729.75
2024-05-09T11:46:30.747Z,101724.72
2024-05-09T11:49:06.606Z,101732.00
2024-05-09T11:51:34.781Z,101729.75
2024-05-09T11:54:07.415Z,101743.78
2024-05-09T11:56:38.363Z,101736.53
2024-05-09T11:59:14.012Z,101732.56
2024-05-09T12:01:43.820Z,101736.50
2024-05-09T12:04:16.200Z,101726.38
2024-05-09T12:06:47.608Z,101726.66
2024-05-09T12:09:21.046Z,101718.47
2024-05-09T12:11:59.076Z,101727.53
2024-05-09T12:14:34.812Z,101714.72
2024-05-09T12:17:04.367Z,101714.97
2024-05-09T12:19:57.669Z,101712.00
2024-05-09T12:22:26.024Z,101698.69
2024-05-09T12:24:59.076Z,101699.03
2024-05-09T12:27:32.561Z,101697.06
2024-05-09T12:30:03.457Z,101690.66
2024-05-09T12:32:32.820Z,101685.63
2024-05-09T12:35:12.823Z,101677.88
2024-05-09T12:37:43.688Z,101682.25
2024-05-09T12:40:26.745Z,101676.41
2024-05-09T12:43:06.974Z,101665.53
2024-05-09T12:45:48.462Z,101670.16
2024-05-09T12:48:19.451Z,101661.00
2024-05-09T12:50:55.346Z,101651.00
2024-05-09T12:53:26.279Z,101650.53
2024-05-09T12:56:03.005Z,101640.22
2024-05-09T12:58:38.253Z,101632.69
2024-05-09T13:01:09.094Z,101629.28
2024-05-09T13:03:39.329Z,101621.78
2024-05-09T13:06:14.073Z,101614.47
2024-05-09T13:08:45.019Z,101608.50
2024-05-09T13:11:20.283Z,101602.00
2024-05-09T13:14:02.447Z,101596.28
2024-05-09T13:16:33.751Z,101592.00
2024-05-09T13:19:02.222Z,101591.78
2024-05-09T13:21:36.289Z,101588.97
2024-05-09T13:24:09.793Z,101584.47
2024-05-09T13:26:40.316Z,101575.16
2024-05-09T13:29:13.624Z,101561.81
2024-05-09T13:31:45.470Z,101557.38
2024-05-09T13:34:13.655Z,101559.97
2024-05-09T13:36:44.405Z,101562.25
2024-05-09T13:39:22.014Z,101552.00
2024-05-09T13:41:54.155Z,101543.03
2024-05-09T13:44:25.393Z,101543.44
2024-05-09T13:47:00.373Z,101540.75
2024-05-09T13:49:34.919Z,101528.31
2024-05-09T13:52:05.842Z,101518.63
2024-05-09T13:54:36.945Z,101518.84
2024-05-09T13:57:10.631Z,101517.53
2024-05-09T13:59:48.961Z,101511.13
2024-05-09T14:02:21.209Z,101506.88
2024-05-09T14:04:49.626Z,101494.66
2024-05-09T14:07:23.278Z,101491.84
2024-05-09T14:09:52.417Z,101476.88
2024-05-09T14:12:24.651Z,101469.66
2024-05-09T14:15:00.651Z,101469.50
2024-05-09T14:17:33.558Z,101463.94
2024-05-09T14:20:09.486Z,101465.53
2024-05-09T14:25:26.930Z,101443.81
2024-05-09T14:28:00.964Z,101450.00
2024-05-09T14:30:37.461Z,101448.22
2024-05-09T14:33:22.446Z,101449.59
2024-05-09T14:35:56.210Z,101455.56
2024-05-09T14:38:24.775Z,101453.84
2024-05-09T14:41:02.212Z,101444.63
2024-05-09T14:43:35.378Z,101450.75
2024-05-09T14:46:09.468Z,101442.19
2024-05-09T14:48:42.062Z,101441.16
2024-05-09T14:51:20.114Z,101463.22
2024-05-09T14:53:50.952Z,101455.31
2024-05-09T14:56:25.470Z,101437.28
2024-05-09T14:59:00.809Z,101445.81
2024-05-09T15:01:39.622Z,101433.47
2024-05-09T15:04:10.170Z,101445.31
2024-05-09T15:06:47.593Z,101425.19
2024-05-09T15:09:15.649Z,101417.16
2024-05-09T15:14:37.184Z,101415.28
2024-05-09T15:17:21.844Z,101409.22
2024-05-09T15:19:52.753Z,101404.03
2024-05-09T15:22:34.951Z,101400.91
2024-05-09T15:25:02.886Z,101397.25
2024-05-09T15:27:35.349Z,101396.69
2024-05-09T15:30:10.861Z,101389.22
2024-05-09T15:32:49.784Z,101380.38
2024-05-09T15:35:42.445Z,101377.94
2024-05-09T15:38:28.225Z,101385.00
2024-05-09T15:40:59.723Z,101376.97
2024-05-09T15:43:32.856Z,101386.63
2024-05-09T15:46:09.250Z,101371.47
2024-05-09T15:48:44.856Z,101373.78
2024-05-09T15:51:15.825Z,101375.75
2024-05-09T15:53:50.181Z,101368.13
2024-05-09T15:56:23.642Z,101360.91
2024-05-09T15:59:00.014Z,101356.34
2024-05-09T16:01:30.695Z,101352.53
2024-05-09T16:04:02.946Z,101358.97
2024-05-09T16:06:39.525Z,101351.38
2024-05-09T16:09:11.188Z,101346.00
2024-05-09T16:11:41.882Z,101355.03
2024-05-09T16:14:09.944Z,101345.56
2024-05-09T16:16:44.373Z,101338.19
2024-05-09T16:19:19.397Z,101331.13
2024-05-09T16:22:01.430Z,101339.03
2024-05-09T16:24:32.468Z,101335.91
2024-05-09T16:27:03.273Z,101331.00
2024-05-09T16:29:31.231Z,101329.06
2024-05-09T16:32:06.218Z,101321.03
2024-05-09T16:34:37.384Z,101323.38
2024-05-09T16:37:10.823Z,101310.78
2024-05-09T16:39:44.042Z,101303.63
2024-05-09T16:42:20.374Z,101298.16
2024-05-09T16:44:49.983Z,101300.16
2024-05-09T16:47:23.558Z,101288.50
2024-05-09T16:50:15.834Z,101280.97
2024-05-09T16:52:52.908Z,101281.56
2024-05-09T16:55:23.242Z,101274.63
2024-05-09T16:57:57.524Z,101273.53
2024-05-09T17:00:37.907Z,101273.63
2024-05-09T17:03:16.902Z,101262.41
2024-05-09T17:05:51.146Z,101262.31
2024-05-09T17:08:27.420Z,101256.03
2024-05-09T17:10:56.878Z,101251.94
2024-05-09T17:13:29.805Z,101254.72
2024-05-09T17:16:02.328Z,101259.69
2024-05-09T17:18:36.466Z,101258.66
2024-05-09T17:21:13.065Z,101252.75
2024-05-09T17:23:45.236Z,101246.78
2024-05-09T17:26:21.496Z,101246.78
2024-05-09T17:28:57.962Z,101235.84
2024-05-09T17:31:28.711Z,101246.88
2024-05-09T17:33:58.995Z,101243.91
2024-05-09T17:36:34.344Z,101249.56
2024-05-09T17:39:05.510Z,101258.09
2024-05-09T17:41:39.024Z,101245.06
2024-05-09T17:44:13.122Z,101248.94
2024-05-09T17:46:43.962Z,101242.97
2024-05-09T17:49:15.233Z,101235.38
2024-05-09T17:51:58.635Z,101237.53
2024-05-09T17:54:30.387Z,101236.56
2024-05-09T17:57:09.322Z,101232.84
2024-05-09T17:59:39.239Z,101226.78
2024-05-09T18:02:12.749Z,101231.88
2024-05-09T18:04:49.361Z,101221.00
2024-05-09T18:07:22.984Z,101223.94
2024-05-09T18:09:54.069Z,101218.34
2024-05-09T18:12:25.180Z,101210.19
2024-05-09T18:14:54.907Z,101211.06
2024-05-09T18:17:36.364Z,101221.97
2024-05-09T18:20:05.759Z,101208.53
2024-05-09T18:22:39.501Z,101213.03
2024-05-09T18:25:15.914Z,101216.81
2024-05-09T18:27:53.101Z,101211.13
2024-05-09T18:30:32.521Z,101198.31
2024-05-09T18:33:16.943Z,101207.66
2024-05-09T18:35:50.653Z,101202.63
2024-05-09T18:38:27.441Z,101199.44
2024-05-09T18:40:59.236Z,101194.44
2024-05-09T18:43:38.037Z,101198.25
2024-05-09T18:46:10.190Z,101219.47
2024-05-09T18:48:41.418Z,101199.84
2024-05-09T18:51:15.941Z,101200.53
2024-05-09T18:53:55.582Z,101205.34
2024-05-09T18:56:30.006Z,101203.44
2024-05-09T18:59:00.744Z,101206.13
2024-05-09T19:01:33.298Z,101201.44
2024-05-09T19:04:04.631Z,101198.50
2024-05-09T19:06:37.104Z,101201.97
2024-05-09T19:09:12.904Z,101208.06
2024-05-09T19:11:49.293Z,101214.19
2024-05-09T19:14:20.283Z,101208.81
2024-05-09T19:16:48.275Z,101205.34
2024-05-09T19:19:20.567Z,101205.47
2024-05-09T19:21:48.967Z,101200.97
2024-05-09T19:24:27.432Z,101197.38
2024-05-09T19:26:56.846Z,101192.22
2024-05-09T19:29:29.111Z,101195.16
2024-05-09T19:32:04.767Z,101193.25
2024-05-09T19:34:39.176Z,101194.47
2024-05-09T19:37:07.285Z,101190.88
2024-05-09T19:39:46.269Z,101190.63
2024-05-09T19:42:14.557Z,101189.06
2024-05-09T19:44:46.436Z,101193.91
2024-05-09T19:47:20.469Z,101193.34
2024-05-09T19:49:57.077Z,101187.38
2024-05-09T19:52:25.070Z,101188.88
2024-05-09T19:55:01.088Z,101176.41
2024-05-09T19:57:28.992Z,101181.56
2024-05-09T19:59:59.731Z,101188.91
2024-05-09T20:02:27.848Z,101176.47
2024-05-09T20:04:58.619Z,101168.19
2024-05-09T20:07:26.503Z,101165.50
2024-05-09T20:10:00.104Z,101171.88
2024-05-09T20:12:28.192Z,101168.41
2024-05-09T20:15:02.895Z,101171.78
2024-05-09T20:17:34.512Z,101170.41
2024-05-09T20:20:09.169Z,101167.06
2024-05-09T20:22:41.865Z,101167.94
2024-05-09T20:25:15.548Z,101169.97
2024-05-09T20:27:45.991Z,101176.94
2024-05-09T20:30:30.562Z,101172.78
2024-05-09T20:33:09.229Z,101168.41
2024-05-09T20:35:42.370Z,101172.97
2024-05-09T20:38:10.338Z,101168.63
2024-05-09T20:40:46.859Z,101164.56
2024-05-09T20:43:16.244Z,101168.41
2024-05-09T20:45:47.094Z,101167.94
2024-05-09T20:48:17.094Z,101174.00
2024-05-09T20:50:48.096Z,101169.84
2024-05-09T20:53:22.417Z,101169.38
2024-05-09T20:55:57.157Z,101178.59
2024-05-09T20:58:26.311Z,101180.03
2024-05-09T21:00:57.419Z,101178.16
2024-05-09T21:03:26.024Z,101168.06
2024-05-09T21:05:57.100Z,101176.34
2024-05-09T21:08:27.022Z,101187.69
2024-05-09T21:11:05.341Z,101182.09
2024-05-09T21:13:34.305Z,101185.25
2024-05-09T21:16:14.295Z,101183.03
2024-05-09T21:18:49.340Z,101181.44
2024-05-09T21:21:20.050Z,101174.50
2024-05-09T21:23:48.225Z,101181.34
2024-05-09T21:26:25.342Z,101173.69
2024-05-09T21:28:53.483Z,101170.13
2024-05-09T21:31:26.072Z,101174.59
2024-05-09T21:33:56.029Z,101172.72
2024-05-09T21:36:26.808Z,101172.72
2024-05-09T21:38:54.691Z,101176.06
2024-05-09T21:41:30.854Z,101177.88
2024-05-09T21:44:01.367Z,101177.75
2024-05-09T21:46:35.317Z,101178.75
2024-05-09T21:49:04.052Z,101172.13
2024-05-09T21:51:37.990Z,101180.44
2024-05-09T21:54:08.809Z,101177.75
2024-05-09T21:56:42.522Z,101184.38
2024-05-09T21:59:12.433Z,101183.59
2024-05-09T22:01:43.132Z,101192.41
2024-05-09T22:04:11.319Z,101183.03
2024-05-09T22:06:42.090Z,101190.63
2024-05-09T22:09:12.310Z,101181.00
2024-05-09T22:11:47.515Z,101198.25
2024-05-09T22:14:21.610Z,101203.41
2024-05-09T22:17:15.757Z,101201.53
2024-05-09T22:19:48.919Z,101202.63
2024-05-09T22:22:22.483Z,101193.66
2024-05-09T22:24:51.944Z,101189.75
2024-05-09T22:27:25.317Z,101199.38
2024-05-09T22:29:56.371Z,101201.84
2024-05-09T22:32:27.092Z,101203.66
2024-05-09T22:34:56.808Z,101193.09
2024-05-09T22:37:27.746Z,101197.94
2024-05-09T22:40:05.478Z,101202.44
2024-05-09T22:42:40.087Z,101199.16
2024-05-09T22:45:18.181Z,101197.03
2024-05-09T22:47:49.136Z,101193.47
2024-05-09T22:50:26.726Z,101195.94
2024-05-09T22:53:02.972Z,101198.66
2024-05-09T22:55:36.779Z,101203.56
2024-05-09T22:58:12.846Z,101206.13
2024-05-09T23:00:43.823Z,101208.41
2024-05-09T23:03:19.234Z,101213.78
2024-05-09T23:05:50.470Z,101209.16
2024-05-09T23:08:23.761Z,101215.56
2024-05-09T23:10:51.970Z,101216.88
2024-05-09T23:13:28.408Z,101210.63
2024-05-09T23:15:58.779Z,101214.88
2024-05-09T23:18:31.990Z,101227.41
2024-05-09T23:21:09.634Z,101238.19
2024-05-09T23:23:43.013Z,101230.25
2024-05-09T23:26:13.237Z,101226.91
2024-05-09T23:28:48.166Z,101230.03
2024-05-09T23:31:18.519Z,101226.56
2024-05-09T23:33:49.930Z,101227.88
2024-05-09T23:36:21.397Z,101231.34
2024-05-09T23:38:55.106Z,101233.03
2024-05-09T23:41:24.808Z,101242.22
2024-05-09T23:43:58.308Z,101241.41
2024-05-09T23:46:33.373Z,101253.97
2024-05-09T23:49:01.720Z,101259.13
2024-05-09T23:51:32.453Z,101254.84
2024-05-09T23:54:00.435Z,101258.53
2024-05-09T23:56:36.487Z,101269.59
2024-05-09T23:59:11.926Z,101268.44
